Indian Village, Louisiana
Current Conditions -  °F | °C
As of 4:55 PM on Friday 28 Nov 2014 (Local Time) from KRSN Reporting Station
Clear Clear  
Wind Chill: 59°   Ceiling: Unl
Heat Index: 59°   Visibility: 10mi
Dew Point: 37°   Wind: 8mph
Humidity: 45%   Direction: 180°S
Pressure: 30.21"   Gusts: NA
Location:  32.5064°N, 92.3457°W
Report Text: KRSN 282255Z AUTO 18007KT 10SM CLR 15/03 A3021 RMK AO2 T01480029
Loading
Personal Weather Stations






























Interactive Weather Map New forecast layout! Learn more

10-Day Weather Forecast

Advertisements
Track Severe Weather on mobile